Millwood, Missouri
Current Conditions -  °F | °C
As of 2:54 PM on Friday 24 Oct 2014 (Local Time) from KSET Reporting Station
Clear Clear  
Wind Chill: 71°   Ceiling: Unl
Heat Index: 71°   Visibility: 10mi
Dew Point: 52°   Wind: 8mph
Humidity: 51%   Direction: 230°SW
Pressure: 30.03"   Gusts: NA
Location:  39.1404°N, 91.0631°W
Report Text: KSET 241954Z AUTO 23007KT 10SM CLR 22/11 A3003 RMK AO2 SLP166 T02170111
Loading
Personal Weather Stations






























Interactive Weather Map
Tropical Storm Tracking
New forecast layout! Learn more

10-Day Weather Forecast

Advertisements
Track Severe Weather on mobile